Time;durP1;ratioP1;P1;durP2;ratioP2;P2;SDS_P1;SDS_P2;PMS_P1;PMS_P2;Temp;Humidity;BMP_temperature;BMP_pressure;BME280_temperature;BME280_humidity;BME280_pressure;Samples;Min_cycle;Max_cycle;Signal;HPM_P1;HPM_P2
2023/04/27 00:00:03;;;;;;;1.70;1.10;;;;;;;19.23;49.39;97008.69;10512011;28;20051;-47
2023/04/27 00:05:47;;;;;;;1.13;0.80;;;;;;;19.22;49.33;97002.50;10498415;28;20412;-46
2023/04/27 00:11:07;;;;;;;1.17;0.98;;;;;;;19.21;49.42;97006.34;10511639;28;20037;-46
2023/04/27 00:16:26;;;;;;;1.30;1.00;;;;;;;19.21;49.23;97003.63;10511387;28;20041;-46
2023/04/27 00:21:45;;;;;;;1.48;0.90;;;;;;;19.19;49.23;96999.63;10511338;28;20040;-46
2023/04/27 00:27:05;;;;;;;1.58;1.00;;;;;;;19.18;49.28;97012.34;10511192;28;20048;-46
2023/04/27 00:32:25;;;;;;;1.90;1.25;;;;;;;19.17;49.16;97003.47;10510578;28;20067;-46
2023/04/27 00:37:44;;;;;;;1.90;1.15;;;;;;;19.16;49.16;96999.16;10510886;28;20044;-46
2023/04/27 00:43:04;;;;;;;1.38;1.00;;;;;;;19.14;49.17;96995.97;10510926;28;20048;-47
2023/04/27 00:48:24;;;;;;;1.33;0.90;;;;;;;19.13;49.04;96994.41;10495658;28;20045;-46
2023/04/27 00:53:44;;;;;;;3.35;1.10;;;;;;;19.12;49.16;96992.03;10510376;28;20048;-48
2023/04/27 00:59:04;;;;;;;1.63;1.10;;;;;;;19.12;49.16;97000.91;10510535;28;20094;-47
2023/04/27 01:04:24;;;;;;;1.00;0.90;;;;;;;19.11;49.14;96995.81;10510389;28;20067;-48
2023/04/27 01:09:45;;;;;;;1.15;0.90;;;;;;;19.10;48.83;96994.25;10495166;28;20404;-46
2023/04/27 01:15:06;;;;;;;2.08;1.00;;;;;;;19.09;49.10;96998.03;10496877;28;20055;-47
2023/04/27 01:20:29;;;;;;;1.38;0.90;;;;;;;19.07;48.84;96990.28;10509966;28;20090;-47
2023/04/27 01:25:48;;;;;;;1.67;1.10;;;;;;;19.07;49.04;96992.16;10496484;28;20067;-46
2023/04/27 01:31:10;;;;;;;1.20;0.90;;;;;;;19.06;48.95;96990.59;10494871;28;20443;-48
2023/04/27 01:36:31;;;;;;;1.25;0.90;;;;;;;19.05;48.89;96992.50;10498467;28;20051;-46
2023/04/27 01:41:51;;;;;;;1.13;1.02;;;;;;;19.03;48.71;96997.38;10497039;28;20040;-46
2023/04/27 01:47:10;;;;;;;1.85;1.00;;;;;;;19.03;48.71;96993.91;10516985;28;20045;-46
2023/04/27 01:52:30;;;;;;;1.23;1.00;;;;;;;19.02;48.75;97001.22;10503540;28;20055;-47
2023/04/27 01:57:49;;;;;;;1.63;1.00;;;;;;;19.01;48.81;97001.53;10516506;28;20040;-46
2023/04/27 02:03:08;;;;;;;1.23;1.10;;;;;;;18.99;48.71;97004.53;10488097;28;20048;-47
2023/04/27 02:08:28;;;;;;;1.20;1.10;;;;;;;18.98;48.64;97011.06;10516244;28;20103;-48
2023/04/27 02:13:47;;;;;;;1.20;1.10;;;;;;;18.98;48.58;97013.75;10515944;28;20048;-46
2023/04/27 02:19:07;;;;;;;1.45;1.20;;;;;;;18.96;48.70;97013.28;10500614;28;20032;-46
2023/04/27 02:24:26;;;;;;;1.20;1.10;;;;;;;18.95;48.50;97014.38;10515558;28;20052;-47
2023/04/27 02:29:45;;;;;;;1.30;1.10;;;;;;;18.95;48.62;97014.38;10502096;28;20049;-46
2023/04/27 02:35:05;;;;;;;1.17;1.02;;;;;;;18.94;48.29;97018.19;10507586;28;20048;-48
2023/04/27 02:40:25;;;;;;;1.48;1.05;;;;;;;18.92;48.59;97018.50;10499716;28;20044;-46
2023/04/27 02:45:45;;;;;;;1.67;1.25;;;;;;;18.92;48.65;97020.41;10514611;28;20488;-48
2023/04/27 02:51:04;;;;;;;1.13;1.00;;;;;;;18.90;48.51;97020.72;10514305;28;20045;-46
2023/04/27 02:56:24;;;;;;;1.45;1.20;;;;;;;18.89;48.51;97019.13;10514099;28;20052;-46
2023/04/27 03:01:44;;;;;;;1.35;1.17;;;;;;;18.88;48.52;97022.16;10498970;28;20059;-48
2023/04/27 03:07:04;;;;;;;1.23;1.10;;;;;;;18.87;48.49;97015.94;10498712;28;20060;-47
2023/04/27 03:12:23;;;;;;;1.83;1.60;;;;;;;18.86;48.31;97010.88;10513582;28;20047;-46
2023/04/27 03:17:42;;;;;;;1.13;1.02;;;;;;;18.85;48.57;97018.16;10513327;28;20404;-46
2023/04/27 03:23:01;;;;;;;1.25;1.15;;;;;;;18.84;48.58;97021.19;10498154;28;20045;-45
2023/04/27 03:28:21;;;;;;;1.30;1.20;;;;;;;18.83;48.50;97025.00;10499287;28;20155;-46
2023/04/27 03:33:41;;;;;;;1.50;1.20;;;;;;;18.83;48.54;97027.69;10499118;28;20060;-46
2023/04/27 03:39:00;;;;;;;1.90;1.30;;;;;;;18.81;48.38;97027.22;10512511;28;20044;-46
2023/04/27 03:44:20;;;;;;;1.73;1.58;;;;;;;18.80;48.37;97031.00;10512372;28;20044;-47
2023/04/27 03:49:40;;;;;;;2.00;1.20;;;;;;;18.78;48.46;97037.50;10512187;28;20056;-46
2023/04/27 03:55:00;;;;;;;1.63;1.15;;;;;;;18.78;48.51;97044.81;10496805;28;20048;-47
2023/04/27 04:00:20;;;;;;;1.30;1.20;;;;;;;18.78;48.59;97047.50;10498453;28;20052;-48
2023/04/27 04:05:39;;;;;;;1.52;1.30;;;;;;;18.76;48.31;97045.13;10496020;28;20052;-46
2023/04/27 04:10:59;;;;;;;1.30;1.20;;;;;;;18.75;48.41;97057.00;10511471;28;20045;-47
2023/04/27 04:16:20;;;;;;;1.30;1.10;;;;;;;18.76;48.50;97049.72;10496025;28;20484;-46
2023/04/27 04:21:39;;;;;;;1.30;1.20;;;;;;;18.74;48.74;97057.34;10511048;28;20481;-45
2023/04/27 04:26:59;;;;;;;1.25;1.10;;;;;;;18.74;49.44;97062.75;10510901;28;20048;-46
2023/04/27 04:32:19;;;;;;;1.30;1.00;;;;;;;18.74;49.62;97073.53;10510874;28;20044;-45
2023/04/27 04:37:38;;;;;;;1.20;1.10;;;;;;;18.73;49.79;97072.72;10468883;28;20055;-45
2023/04/27 04:42:58;;;;;;;1.08;0.98;;;;;;;18.74;49.90;97082.41;10453783;28;20037;-47
2023/04/27 04:48:19;;;;;;;1.42;1.30;;;;;;;18.76;50.13;97091.00;10453889;28;20052;-45
2023/04/27 04:53:38;;;;;;;1.20;1.10;;;;;;;18.75;49.93;97084.00;10468904;28;20037;-45
2023/04/27 04:58:57;;;;;;;2.63;1.13;;;;;;;18.77;50.00;97097.19;10468811;28;20045;-45
2023/04/27 05:04:17;;;;;;;2.33;1.30;;;;;;;18.77;49.81;97092.56;10440497;28;20113;-45
2023/04/27 05:09:36;;;;;;;1.58;1.10;;;;;;;18.80;49.87;97109.28;10455449;28;20053;-44
2023/04/27 05:14:56;;;;;;;1.67;1.10;;;;;;;18.80;49.75;97104.69;10468569;28;20472;-45
2023/04/27 05:20:15;;;;;;;1.25;1.15;;;;;;;18.83;49.81;97097.88;10461247;28;20493;-47
2023/04/27 05:25:40;;;;;;;2.83;1.40;;;;;;;18.86;49.84;97105.34;10476323;28;20056;-46
2023/04/27 05:30:59;;;;;;;25.15;22.02;;;;;;;18.90;50.02;97106.31;10475975;28;20444;-47
2023/04/27 05:36:19;;;;;;;21.50;17.10;;;;;;;18.91;50.19;97103.28;10496864;28;20060;-46
2023/04/27 05:41:38;;;;;;;19.00;15.02;;;;;;;18.96;50.33;97111.25;10517241;28;20045;-45
2023/04/27 05:46:58;;;;;;;18.50;13.65;;;;;;;19.00;50.01;97102.56;10517108;28;20040;-48
2023/04/27 05:52:18;;;;;;;14.65;11.90;;;;;;;19.03;49.98;97108.09;10516878;28;20041;-46
2023/04/27 05:57:38;;;;;;;12.63;10.43;;;;;;;19.05;49.79;97108.59;10516626;28;20119;-47
2023/04/27 06:02:58;;;;;;;14.98;10.95;;;;;;;19.09;49.76;97106.88;10516464;28;20040;-46
2023/04/27 06:08:17;;;;;;;12.77;10.18;;;;;;;19.13;49.62;97115.94;10515999;28;20041;-47
2023/04/27 06:13:36;;;;;;;11.38;9.88;;;;;;;19.18;49.52;97106.88;10515800;28;20047;-46
2023/04/27 06:18:56;;;;;;;10.73;9.13;;;;;;;19.20;49.38;97109.28;10515711;28;20044;-46
2023/04/27 06:24:15;;;;;;;10.20;8.88;;;;;;;19.24;49.36;97115.63;10515445;28;20106;-46
2023/04/27 06:29:35;;;;;;;12.43;9.38;;;;;;;19.25;49.23;97112.63;10514926;28;20052;-45
2023/04/27 06:34:55;;;;;;;10.65;8.30;;;;;;;19.29;49.34;97110.88;10508097;28;20420;-45
2023/04/27 06:40:14;;;;;;;9.98;8.18;;;;;;;19.32;49.25;97112.16;10514634;28;20404;-46
2023/04/27 06:45:34;;;;;;;10.85;7.75;;;;;;;19.35;49.30;97116.94;10514729;28;20048;-45
2023/04/27 06:50:54;;;;;;;9.93;7.63;;;;;;;19.38;49.41;97127.09;10514173;28;20098;-46
2023/04/27 06:56:14;;;;;;;9.82;7.57;;;;;;;19.40;49.57;97124.88;10514060;28;20040;-46
2023/04/27 07:01:34;;;;;;;9.40;7.63;;;;;;;19.43;49.41;97129.66;10513883;28;20048;-46
2023/04/27 07:06:54;;;;;;;9.88;7.15;;;;;;;19.45;49.36;97126.66;10500312;28;20048;-47
2023/04/27 07:12:13;;;;;;;8.88;6.70;;;;;;;19.46;49.39;97122.81;10513726;28;20049;-46
2023/04/27 07:17:33;;;;;;;8.90;6.88;;;;;;;19.48;49.38;97132.22;10513247;28;20052;-46
2023/04/27 07:22:52;;;;;;;8.30;6.57;;;;;;;19.50;49.41;97126.47;10512931;28;20507;-45
2023/04/27 07:28:12;;;;;;;7.65;6.55;;;;;;;19.52;49.54;97124.25;10512775;28;20052;-47
2023/04/27 07:33:35;;;;;;;7.72;6.18;;;;;;;19.53;49.49;97129.34;10509553;28;20052;-46
2023/04/27 07:38:56;;;;;;;6.70;5.65;;;;;;;19.54;49.47;97128.25;10512037;28;20048;-46
2023/04/27 07:44:18;;;;;;;8.00;5.80;;;;;;;19.56;49.56;97127.91;10498607;28;20044;-46
2023/04/27 07:49:39;;;;;;;7.00;5.60;;;;;;;19.59;49.65;97129.22;10512271;28;20048;-45
2023/04/27 07:54:58;;;;;;;6.50;5.57;;;;;;;19.61;49.47;97132.41;10498524;28;20053;-47
2023/04/27 08:00:19;;;;;;;6.28;5.60;;;;;;;19.64;49.62;97147.97;10511863;28;20051;-45
2023/04/27 08:05:39;;;;;;;7.55;5.28;;;;;;;19.67;49.50;97144.63;10511674;28;20048;-45
2023/04/27 08:10:58;;;;;;;7.13;4.90;;;;;;;19.70;49.41;97144.03;10511517;28;20044;-46
2023/04/27 08:16:18;;;;;;;5.68;4.97;;;;;;;19.72;49.55;97141.81;10511221;28;20036;-48
2023/04/27 08:21:37;;;;;;;5.78;4.75;;;;;;;19.74;49.57;97145.00;10511147;28;20040;-46
2023/04/27 08:26:57;;;;;;;15.18;5.10;;;;;;;19.77;49.57;97135.47;10510992;28;20040;-45
2023/04/27 08:32:16;;;;;;;6.47;4.90;;;;;;;19.78;49.55;97137.84;10510570;28;20048;-47
2023/04/27 08:37:36;;;;;;;6.10;4.75;;;;;;;19.82;49.65;97136.09;10497580;28;20052;-46
2023/04/27 08:42:57;;;;;;;5.88;4.63;;;;;;;19.85;49.54;97137.38;10510667;28;20044;-46
2023/04/27 08:48:17;;;;;;;5.63;4.93;;;;;;;19.87;49.53;97146.75;10510604;28;20047;-45
2023/04/27 08:53:38;;;;;;;6.35;4.40;;;;;;;19.89;49.52;97144.50;10517834;28;20051;-47
2023/04/27 08:59:00;;;;;;;4.90;4.22;;;;;;;19.92;49.41;97140.41;10503722;28;20070;-47
2023/04/27 09:04:20;;;;;;;5.53;4.57;;;;;;;19.94;49.39;97149.78;10518794;28;20044;-46
2023/04/27 09:09:40;;;;;;;5.90;3.95;;;;;;;19.98;49.39;97149.16;10518478;28;20044;-47
2023/04/27 09:15:05;;;;;;;4.38;3.80;;;;;;;19.99;49.38;97150.72;10518126;28;20523;-46
2023/04/27 09:20:26;;;;;;;6.55;4.20;;;;;;;19.99;49.28;97137.22;10517850;28;20094;-46
2023/04/27 09:25:45;;;;;;;6.18;4.18;;;;;;;19.98;49.45;97139.13;10517709;28;20055;-47
2023/04/27 09:31:07;;;;;;;5.80;4.25;;;;;;;19.98;49.77;97133.72;10517593;28;20412;-46
2023/04/27 09:36:29;;;;;;;5.03;3.60;;;;;;;19.99;49.53;97129.09;10506022;28;20095;-45
2023/04/27 09:41:49;;;;;;;6.93;3.72;;;;;;;20.00;49.68;97131.47;10503844;28;20048;-47
2023/04/27 09:47:09;;;;;;;6.18;3.60;;;;;;;20.04;49.60;97137.06;10487794;28;20105;-46
2023/04/27 09:52:29;;;;;;;4.85;3.33;;;;;;;20.04;50.03;97134.34;10516533;28;20048;-47
2023/04/27 09:57:57;;;;;;;5.38;3.53;;;;;;;20.06;50.52;97129.41;10516431;28;20045;-46
2023/04/27 10:03:32;;;;;;;3.88;3.47;;;;;;;20.07;50.17;97128.28;10500573;28;20041;-46
2023/04/27 10:08:51;;;;;;;4.72;3.40;;;;;;;20.08;50.09;97132.59;10501008;28;20040;-45
2023/04/27 10:14:17;;;;;;;5.55;3.35;;;;;;;20.10;50.48;97119.53;10558009;28;20373;-45
2023/04/27 10:19:37;;;;;;;12.88;4.47;;;;;;;20.12;50.89;97114.63;10557882;28;20039;-46
2023/04/27 10:24:56;;;;;;;86.10;20.35;;;;;;;20.13;52.55;97113.47;10557525;28;20074;-45
2023/04/27 10:30:17;;;;;;;57.17;16.05;;;;;;;20.15;53.70;97114.00;10557484;28;20097;-46
2023/04/27 10:35:43;;;;;;;13.57;4.35;;;;;;;19.28;29.63;97114.69;10548156;28;20412;-46
2023/04/27 10:41:05;;;;;;;6.35;3.25;;;;;;;18.85;28.23;97112.63;10556980;28;20036;-45
2023/04/27 10:46:25;;;;;;;8.40;3.08;;;;;;;18.86;33.07;97098.06;10543294;28;20048;-46
2023/04/27 10:51:46;;;;;;;6.85;2.80;;;;;;;19.24;39.37;97104.81;10556595;28;20048;-46
2023/04/27 10:57:07;;;;;;;7.10;2.50;;;;;;;19.48;39.41;97110.59;10541126;28;20040;-46
2023/04/27 11:02:27;;;;;;;7.18;2.63;;;;;;;19.63;39.78;97108.53;10556181;28;20044;-44
2023/04/27 11:07:48;;;;;;;5.57;2.75;;;;;;;19.71;40.12;97102.34;10555914;28;20048;-48
2023/04/27 11:13:12;;;;;;;4.70;2.47;;;;;;;19.74;40.72;97089.03;10554864;28;20093;-45
2023/04/27 11:18:36;;;;;;;6.75;2.67;;;;;;;19.78;41.14;97100.00;10541502;28;20385;-45
2023/04/27 11:23:56;;;;;;;3.40;1.90;;;;;;;19.82;41.64;97100.16;10555247;28;20044;-46
2023/04/27 11:29:16;;;;;;;3.40;1.90;;;;;;;19.83;42.47;97094.41;10554988;28;20040;-46
2023/04/27 11:34:37;;;;;;;5.55;2.33;;;;;;;19.79;34.50;97104.28;10540758;28;20051;-47
2023/04/27 11:39:59;;;;;;;6.03;2.40;;;;;;;19.65;29.88;97100.91;10554471;28;20040;-45
2023/04/27 11:45:18;;;;;;;2.97;1.63;;;;;;;19.74;37.90;97090.94;10554381;28;20048;-53
2023/04/27 11:50:38;;;;;;;3.00;1.83;;;;;;;19.78;39.54;97096.47;10538955;28;20483;-46
2023/04/27 11:56:00;;;;;;;4.82;2.10;;;;;;;19.83;39.57;97094.41;10553920;28;20111;-45
2023/04/27 12:01:19;;;;;;;3.30;2.00;;;;;;;19.86;39.75;97091.09;10553829;28;20044;-46
2023/04/27 12:06:38;;;;;;;2.85;1.77;;;;;;;19.90;40.12;97096.66;10553761;28;20051;-46
2023/04/27 12:11:58;;;;;;;4.82;2.30;;;;;;;19.90;40.50;97089.34;10553516;28;20546;-45
2023/04/27 12:17:18;;;;;;;5.30;1.98;;;;;;;19.91;41.08;97090.91;10553014;28;20036;-48
2023/04/27 12:22:38;;;;;;;4.68;2.00;;;;;;;19.93;41.58;97091.41;10553367;28;20500;-45
2023/04/27 12:27:58;;;;;;;6.22;2.33;;;;;;;19.93;34.96;97087.91;10552920;28;20389;-48
2023/04/27 12:33:17;;;;;;;5.55;2.72;;;;;;;19.79;29.77;97093.47;10534879;28;20052;-45
2023/04/27 12:38:38;;;;;;;3.88;2.10;;;;;;;19.80;36.29;97095.06;10538905;28;20127;-45
2023/04/27 12:43:58;;;;;;;4.03;1.92;;;;;;;19.80;35.89;97091.56;10552989;28;20044;-45
2023/04/27 12:49:17;;;;;;;3.55;2.20;;;;;;;19.74;28.65;97074.72;10552920;28;20044;-47
2023/04/27 12:54:36;;;;;;;3.15;1.90;;;;;;;19.35;26.28;97085.31;10552555;28;20040;-44
2023/04/27 12:59:56;;;;;;;4.35;1.83;;;;;;;19.56;33.08;97076.56;10552632;28;20047;-44
2023/04/27 13:05:16;;;;;;;4.88;1.90;;;;;;;19.63;33.99;97076.91;10555825;28;20432;-57
2023/04/27 13:10:36;;;;;;;4.32;1.85;;;;;;;19.69;34.62;97082.94;10557268;28;20036;-58
2023/04/27 13:15:57;;;;;;;3.65;1.13;;;;;;;19.72;35.41;97082.34;10540042;28;20123;-54
2023/04/27 13:21:17;;;;;;;4.07;2.00;;;;;;;19.74;35.74;97077.44;10552372;28;20059;-56
2023/04/27 13:26:36;;;;;;;3.38;1.48;;;;;;;19.73;35.72;97079.31;10552078;28;20048;-56
2023/04/27 13:31:56;;;;;;;5.97;1.95;;;;;;;19.72;36.12;97083.16;10552070;28;20040;-53
2023/04/27 13:37:15;;;;;;;4.13;1.40;;;;;;;19.73;35.94;97078.53;10542619;28;20047;-56
2023/04/27 13:42:36;;;;;;;5.53;2.13;;;;;;;19.66;31.32;97072.75;10551391;28;20552;-56
2023/04/27 13:47:55;;;;;;;5.03;2.35;;;;;;;19.71;34.51;97064.50;10561858;28;20058;-45
2023/04/27 13:53:15;;;;;;;9.23;2.30;;;;;;;19.72;35.30;97068.84;10546081;28;20059;-58
2023/04/27 13:58:35;;;;;;;5.13;2.22;;;;;;;19.75;36.22;97063.56;10544901;28;20062;-57
2023/04/27 14:03:55;;;;;;;5.90;2.40;;;;;;;19.76;37.09;97064.38;10558651;28;20408;-59
2023/04/27 14:09:14;;;;;;;5.47;2.40;;;;;;;19.70;28.88;97065.63;10544602;28;20043;-62
2023/04/27 14:14:34;;;;;;;4.63;2.10;;;;;;;19.64;29.40;97066.88;10544607;28;20048;-55
2023/04/27 14:19:54;;;;;;;6.32;2.00;;;;;;;19.66;33.20;97061.94;10557902;28;20047;-55
2023/04/27 14:25:14;;;;;;;4.20;1.90;;;;;;;19.68;33.87;97059.72;10557685;28;20505;-57
2023/04/27 14:30:34;;;;;;;5.47;1.80;;;;;;;19.70;34.65;97047.50;10557582;28;20438;-57
2023/04/27 14:35:54;;;;;;;7.70;1.95;;;;;;;19.71;35.36;97049.09;10547548;28;20483;-55
2023/04/27 14:41:13;;;;;;;4.15;1.90;;;;;;;19.75;36.11;97054.66;10557171;28;20044;-55
2023/04/27 14:46:33;;;;;;;6.18;1.52;;;;;;;19.76;36.91;97050.88;10556962;28;20044;-54
2023/04/27 14:51:52;;;;;;;5.53;1.60;;;;;;;19.77;37.26;97051.66;10556445;28;20044;-54
2023/04/27 14:57:12;;;;;;;6.05;1.77;;;;;;;19.78;37.97;97045.13;10556467;28;20043;-57
2023/04/27 15:02:31;;;;;;;4.22;1.67;;;;;;;19.78;38.50;97043.22;10556208;28;20062;-55
2023/04/27 15:07:51;;;;;;;9.02;1.80;;;;;;;19.79;39.01;97034.00;10556019;28;20040;-56
2023/04/27 15:13:10;;;;;;;8.60;1.73;;;;;;;19.80;39.46;97041.00;10555760;28;20385;-45
2023/04/27 15:18:30;;;;;;;3.35;1.40;;;;;;;19.81;39.92;97036.38;10555535;28;20048;-54
2023/04/27 15:23:50;;;;;;;8.63;1.90;;;;;;;19.82;40.22;97044.19;10555331;28;20044;-54
2023/04/27 15:29:10;;;;;;;3.58;1.88;;;;;;;19.83;40.82;97034.94;10555787;28;20109;-56
2023/04/27 15:34:29;;;;;;;6.70;1.70;;;;;;;19.83;41.12;97040.34;10549138;28;20040;-55
2023/04/27 15:39:49;;;;;;;3.55;1.55;;;;;;;19.82;41.50;97038.00;10554762;28;20044;-54
2023/04/27 15:45:08;;;;;;;5.85;1.60;;;;;;;19.83;41.82;97034.94;10554416;28;20055;-53
2023/04/27 15:50:28;;;;;;;9.68;1.80;;;;;;;19.86;42.39;97038.94;10554254;28;20442;-55
2023/04/27 15:55:47;;;;;;;5.20;1.75;;;;;;;19.86;42.48;97033.53;10553391;28;20043;-59
2023/04/27 16:01:07;;;;;;;6.30;1.75;;;;;;;19.86;42.98;97034.31;10539892;28;20117;-59
2023/04/27 16:06:31;;;;;;;2.72;1.38;;;;;;;19.86;43.44;97033.53;10553681;28;20048;-57
2023/04/27 16:11:51;;;;;;;5.15;1.60;;;;;;;19.86;43.62;97033.53;10553506;28;20036;-59
2023/04/27 16:17:11;;;;;;;2.30;1.20;;;;;;;19.88;43.79;97034.00;10553473;28;20044;-57
2023/04/27 16:22:32;;;;;;;8.50;1.63;;;;;;;19.86;43.91;97028.91;10553267;28;20406;-56
2023/04/27 16:27:52;;;;;;;6.53;1.70;;;;;;;19.86;44.03;97034.31;10553140;28;20043;-57
2023/04/27 16:33:11;;;;;;;5.53;1.48;;;;;;;19.86;44.22;97026.22;10550826;28;20098;-57
2023/04/27 16:38:31;;;;;;;2.03;1.45;;;;;;;19.88;44.21;97025.88;10552818;28;20062;-58
2023/04/27 16:43:50;;;;;;;3.80;1.35;;;;;;;19.87;44.08;97022.38;10552698;28;20040;-57
2023/04/27 16:49:10;;;;;;;4.57;1.40;;;;;;;19.88;43.76;97026.69;10552605;28;20040;-57
2023/04/27 16:54:30;;;;;;;2.60;1.15;;;;;;;19.88;43.94;97015.84;10552476;28;20048;-57
2023/04/27 16:59:50;;;;;;;1.40;1.10;;;;;;;19.87;44.04;97022.38;10552362;28;20044;-57
2023/04/27 17:05:09;;;;;;;1.58;1.00;;;;;;;19.87;44.27;97018.88;10538890;28;20052;-57
2023/04/27 17:10:29;;;;;;;2.85;1.20;;;;;;;19.87;44.45;97018.88;10538930;28;20056;-57
2023/04/27 17:15:50;;;;;;;4.97;1.70;;;;;;;19.86;44.40;97023.50;10560517;28;20040;-61
2023/04/27 17:21:10;;;;;;;1.90;1.20;;;;;;;19.84;44.64;97023.03;10560324;28;20044;-61
2023/04/27 17:26:31;;;;;;;5.00;1.70;;;;;;;19.85;44.70;97013.78;10560136;28;20052;-61
2023/04/27 17:31:51;;;;;;;6.88;1.58;;;;;;;19.84;44.95;97019.53;10559933;28;20044;-61
2023/04/27 17:37:10;;;;;;;4.05;1.63;;;;;;;19.83;45.12;97013.31;10546315;28;20048;-59
2023/04/27 17:42:29;;;;;;;3.92;1.58;;;;;;;19.84;45.34;97014.91;10559495;28;20040;-60
2023/04/27 17:47:49;;;;;;;4.90;1.60;;;;;;;19.83;45.69;97016.03;10559378;28;20055;-59
2023/04/27 17:53:09;;;;;;;5.18;1.63;;;;;;;19.84;45.80;97014.91;10559119;28;20048;-59
2023/04/27 17:58:28;;;;;;;3.75;1.42;;;;;;;19.82;46.11;97017.16;10558751;28;20044;-57
2023/04/27 18:03:48;;;;;;;3.83;1.50;;;;;;;19.83;46.40;97020.63;10558620;28;20047;-57
2023/04/27 18:09:08;;;;;;;2.78;1.50;;;;;;;19.81;46.50;97026.34;10558438;28;20040;-57
2023/04/27 18:14:28;;;;;;;6.15;1.80;;;;;;;19.82;46.68;97027.19;10558050;28;20094;-57
2023/04/27 18:19:53;;;;;;;2.25;1.50;;;;;;;19.81;47.11;97037.16;10558025;28;20044;-57
2023/04/27 18:25:12;;;;;;;2.92;1.55;;;;;;;19.81;47.16;97039.09;10557129;28;20480;-58
2023/04/27 18:30:32;;;;;;;3.20;1.60;;;;;;;19.82;47.25;97052.28;10557668;28;20075;-57
2023/04/27 18:35:51;;;;;;;2.35;1.42;;;;;;;19.79;47.19;97055.63;10547593;28;20059;-61
2023/04/27 18:41:11;;;;;;;3.85;1.52;;;;;;;19.78;47.86;97059.47;10543517;28;20055;-61
2023/04/27 18:46:31;;;;;;;3.50;1.63;;;;;;;19.78;47.73;97064.88;10556995;28;20548;-59
2023/04/27 18:51:50;;;;;;;2.67;1.30;;;;;;;19.78;48.15;97072.16;10556826;28;20507;-55
2023/04/27 18:57:10;;;;;;;8.00;1.58;;;;;;;19.79;48.14;97079.16;10542988;28;20075;-59
2023/04/27 19:02:29;;;;;;;8.43;1.60;;;;;;;19.78;48.97;97077.56;10556329;28;20488;-58
2023/04/27 19:07:49;;;;;;;5.15;1.40;;;;;;;19.79;49.12;97087.28;10556066;28;20070;-58
2023/04/27 19:13:09;;;;;;;2.88;1.70;;;;;;;19.78;49.43;97088.38;10555849;28;20047;-58
2023/04/27 19:18:28;;;;;;;7.15;1.80;;;;;;;19.76;49.46;97091.41;10555607;28;20032;-57
2023/04/27 19:23:47;;;;;;;5.80;1.40;;;;;;;19.76;49.51;97080.59;10555410;28;20040;-56
2023/04/27 19:29:07;;;;;;;2.47;1.67;;;;;;;19.75;49.60;97077.09;10555211;28;20044;-56
2023/04/27 19:34:27;;;;;;;2.58;1.50;;;;;;;19.75;49.70;97085.19;10548418;28;20055;-57
2023/04/27 19:39:46;;;;;;;4.80;1.70;;;;;;;19.75;49.71;97089.81;10554819;28;20051;-57
2023/04/27 19:45:06;;;;;;;3.65;2.28;;;;;;;19.74;49.79;97085.53;10539408;28;20044;-58
2023/04/27 19:50:26;;;;;;;5.82;1.95;;;;;;;19.74;49.66;97085.53;10554478;28;20040;-56
2023/04/27 19:55:45;;;;;;;3.40;1.70;;;;;;;19.73;50.01;97090.13;10554147;28;20047;-57
2023/04/27 20:01:05;;;;;;;4.90;2.20;;;;;;;19.71;50.14;97100.47;10554010;28;20411;-57
2023/04/27 20:06:24;;;;;;;4.82;1.80;;;;;;;19.71;50.19;97096.94;10553949;28;20048;-57
2023/04/27 20:11:44;;;;;;;4.45;1.73;;;;;;;19.71;50.38;97099.66;10553710;28;20092;-57
2023/04/27 20:17:05;;;;;;;3.65;1.80;;;;;;;19.70;50.51;97100.78;10553549;28;20423;-57
2023/04/27 20:22:24;;;;;;;6.15;1.70;;;;;;;19.69;50.40;97104.56;10553343;28;20047;-57
2023/04/27 20:27:44;;;;;;;4.00;1.73;;;;;;;19.68;50.26;97097.56;10537994;28;20047;-57
2023/04/27 20:33:04;;;;;;;5.00;1.75;;;;;;;19.67;50.44;97113.00;10551360;28;20055;-57
2023/04/27 20:38:24;;;;;;;2.03;1.52;;;;;;;19.66;50.01;97105.19;10552934;28;20044;-54
2023/04/27 20:43:44;;;;;;;2.60;1.63;;;;;;;19.67;50.36;97094.06;10552777;28;20048;-54
2023/04/27 20:49:04;;;;;;;5.53;2.08;;;;;;;19.67;50.75;97091.38;10552415;28;20044;-54
2023/04/27 20:54:23;;;;;;;3.33;1.90;;;;;;;19.68;50.71;97084.03;10552533;28;20040;-54
2023/04/27 20:59:43;;;;;;;3.85;1.77;;;;;;;19.66;50.67;97072.75;10552447;28;20480;-54
2023/04/27 21:05:03;;;;;;;3.25;1.80;;;;;;;19.66;50.74;97068.16;10552410;28;20052;-54
2023/04/27 21:10:23;;;;;;;4.57;1.92;;;;;;;19.65;50.69;97063.06;10552398;28;20040;-54
2023/04/27 21:15:42;;;;;;;3.50;1.70;;;;;;;19.66;50.50;97067.34;10552107;28;20044;-54
2023/04/27 21:21:02;;;;;;;4.78;1.77;;;;;;;19.64;50.50;97058.78;10552099;28;20040;-54
2023/04/27 21:26:22;;;;;;;4.85;1.88;;;;;;;19.64;50.46;97064.19;10551980;28;20052;-54
2023/04/27 21:31:41;;;;;;;3.00;2.00;;;;;;;19.63;50.61;97057.19;10551872;28;20496;-54
2023/04/27 21:37:00;;;;;;;4.10;1.90;;;;;;;19.62;50.32;97047.47;10538972;28;20044;-54
2023/04/27 21:42:20;;;;;;;4.18;1.60;;;;;;;19.61;50.50;97052.09;10551670;28;20098;-54
2023/04/27 21:47:39;;;;;;;3.17;1.70;;;;;;;19.61;50.47;97051.31;10551583;28;20496;-54
2023/04/27 21:52:59;;;;;;;2.45;1.63;;;;;;;19.59;50.36;97050.84;10536222;28;20476;-54
2023/04/27 21:58:19;;;;;;;2.17;1.40;;;;;;;19.58;50.21;97058.13;10552894;28;20036;-55
2023/04/27 22:03:40;;;;;;;3.80;1.67;;;;;;;19.59;50.23;97046.22;10558824;28;20047;-54
2023/04/27 22:08:59;;;;;;;4.20;1.95;;;;;;;19.59;50.15;97045.44;10558592;28;20080;-54
2023/04/27 22:14:20;;;;;;;4.28;1.80;;;;;;;19.59;50.09;97045.44;10558317;28;20093;-54
2023/04/27 22:19:40;;;;;;;2.33;1.60;;;;;;;19.55;50.02;97048.75;10558134;28;20044;-54
2023/04/27 22:24:59;;;;;;;2.63;1.60;;;;;;;19.55;50.16;97051.47;10557924;28;20059;-54
2023/04/27 22:30:19;;;;;;;2.28;1.70;;;;;;;19.55;50.10;97048.75;10557752;28;20044;-54
2023/04/27 22:35:38;;;;;;;2.78;1.63;;;;;;;19.52;50.32;97041.31;10543278;28;20062;-54
2023/04/27 22:40:57;;;;;;;3.00;1.77;;;;;;;19.52;50.28;97043.19;10557334;28;20044;-54
2023/04/27 22:46:17;;;;;;;2.05;1.52;;;;;;;19.50;50.32;97032.72;10557111;28;20048;-54
2023/04/27 22:51:37;;;;;;;3.08;1.40;;;;;;;19.50;50.20;97027.31;10556899;28;20047;-54
2023/04/27 22:56:57;;;;;;;2.50;1.63;;;;;;;19.49;50.34;97025.72;10556717;28;20044;-54
2023/04/27 23:02:16;;;;;;;2.72;1.80;;;;;;;19.47;50.34;97027.16;10556438;28;20101;-54
2023/04/27 23:07:36;;;;;;;2.30;1.55;;;;;;;19.46;50.33;97026.34;10542819;28;20089;-54
2023/04/27 23:12:55;;;;;;;2.35;1.60;;;;;;;19.45;50.44;97030.16;10555903;28;20051;-54
2023/04/27 23:18:15;;;;;;;2.10;1.60;;;;;;;19.45;50.39;97027.47;10555742;28;20048;-54
2023/04/27 23:23:34;;;;;;;1.88;1.38;;;;;;;19.44;50.38;97030.47;10555647;28;20381;-55
2023/04/27 23:28:54;;;;;;;4.10;1.77;;;;;;;19.43;50.39;97032.41;10555430;28;20044;-54
2023/04/27 23:34:14;;;;;;;1.90;1.42;;;;;;;19.42;50.27;97028.09;10550050;28;20052;-54
2023/04/27 23:39:34;;;;;;;3.03;1.60;;;;;;;19.42;50.20;97025.38;10554927;28;20052;-54
2023/04/27 23:44:53;;;;;;;2.72;1.50;;;;;;;19.40;50.21;97019.50;10554771;28;20446;-55
2023/04/27 23:50:12;;;;;;;2.05;1.52;;;;;;;19.40;50.22;97021.44;10554579;28;20040;-55
2023/04/27 23:55:35;;;;;;;2.28;1.58;;;;;;;19.40;50.32;97022.22;10554314;28;20487;-54
